sensor_id;sensor_type;location;lat;lon;timestamp;P1;durP1;ratioP1;P2;durP2;ratioP2
2712;SDS011;1366;47.988;7.856;2023-06-04T00:00:33;8.30;;;7.60;;
2712;SDS011;1366;47.988;7.856;2023-06-04T00:02:59;9.40;;;8.50;;
2712;SDS011;1366;47.988;7.856;2023-06-04T00:05:25;8.67;;;7.80;;
2712;SDS011;1366;47.988;7.856;2023-06-04T00:07:51;8.40;;;7.70;;
2712;SDS011;1366;47.988;7.856;2023-06-04T00:10:17;8.70;;;7.90;;
2712;SDS011;1366;47.988;7.856;2023-06-04T00:12:44;8.83;;;7.70;;
2712;SDS011;1366;47.988;7.856;2023-06-04T00:15:10;8.43;;;7.80;;
2712;SDS011;1366;47.988;7.856;2023-06-04T00:17:36;9.10;;;8.20;;
2712;SDS011;1366;47.988;7.856;2023-06-04T00:20:02;8.37;;;7.63;;
2712;SDS011;1366;47.988;7.856;2023-06-04T00:22:28;8.47;;;7.73;;
2712;SDS011;1366;47.988;7.856;2023-06-04T00:24:54;8.07;;;7.40;;
2712;SDS011;1366;47.988;7.856;2023-06-04T00:27:20;8.20;;;7.50;;
2712;SDS011;1366;47.988;7.856;2023-06-04T00:29:46;8.53;;;7.83;;
2712;SDS011;1366;47.988;7.856;2023-06-04T00:32:12;8.30;;;7.70;;
2712;SDS011;1366;47.988;7.856;2023-06-04T00:34:38;9.33;;;8.33;;
2712;SDS011;1366;47.988;7.856;2023-06-04T00:37:05;8.40;;;7.70;;
2712;SDS011;1366;47.988;7.856;2023-06-04T00:39:31;10.53;;;8.40;;
2712;SDS011;1366;47.988;7.856;2023-06-04T00:41:59;9.90;;;8.10;;
2712;SDS011;1366;47.988;7.856;2023-06-04T00:44:25;8.33;;;7.57;;
2712;SDS011;1366;47.988;7.856;2023-06-04T00:46:52;7.70;;;7.00;;
2712;SDS011;1366;47.988;7.856;2023-06-04T00:49:21;8.37;;;7.67;;
2712;SDS011;1366;47.988;7.856;2023-06-04T00:51:47;8.53;;;7.73;;
2712;SDS011;1366;47.988;7.856;2023-06-04T00:54:13;8.17;;;7.37;;
2712;SDS011;1366;47.988;7.856;2023-06-04T00:56:40;8.70;;;7.90;;
2712;SDS011;1366;47.988;7.856;2023-06-04T00:59:07;8.73;;;8.00;;
2712;SDS011;1366;47.988;7.856;2023-06-04T01:01:37;9.10;;;8.30;;
2712;SDS011;1366;47.988;7.856;2023-06-04T01:04:06;8.60;;;7.90;;
2712;SDS011;1366;47.988;7.856;2023-06-04T01:06:36;11.70;;;8.23;;
2712;SDS011;1366;47.988;7.856;2023-06-04T01:09:04;7.90;;;7.20;;
2712;SDS011;1366;47.988;7.856;2023-06-04T01:11:39;10.27;;;8.63;;
2712;SDS011;1366;47.988;7.856;2023-06-04T01:14:06;8.50;;;7.80;;
2712;SDS011;1366;47.988;7.856;2023-06-04T01:16:35;8.80;;;8.00;;
2712;SDS011;1366;47.988;7.856;2023-06-04T01:19:05;9.40;;;8.60;;
2712;SDS011;1366;47.988;7.856;2023-06-04T01:21:45;8.90;;;8.20;;
2712;SDS011;1366;47.988;7.856;2023-06-04T01:24:13;7.60;;;7.00;;
2712;SDS011;1366;47.988;7.856;2023-06-04T01:26:40;9.10;;;8.20;;
2712;SDS011;1366;47.988;7.856;2023-06-04T01:29:07;10.43;;;8.50;;
2712;SDS011;1366;47.988;7.856;2023-06-04T01:31:33;8.10;;;7.40;;
2712;SDS011;1366;47.988;7.856;2023-06-04T01:33:59;8.53;;;7.83;;
2712;SDS011;1366;47.988;7.856;2023-06-04T01:36:25;9.50;;;7.77;;
2712;SDS011;1366;47.988;7.856;2023-06-04T01:38:52;8.90;;;8.10;;
2712;SDS011;1366;47.988;7.856;2023-06-04T01:41:18;8.57;;;7.77;;
2712;SDS011;1366;47.988;7.856;2023-06-04T01:43:44;8.83;;;7.90;;
2712;SDS011;1366;47.988;7.856;2023-06-04T01:46:10;8.63;;;7.80;;
2712;SDS011;1366;47.988;7.856;2023-06-04T01:48:36;8.70;;;7.90;;
2712;SDS011;1366;47.988;7.856;2023-06-04T01:51:03;8.17;;;7.50;;
2712;SDS011;1366;47.988;7.856;2023-06-04T01:53:30;8.00;;;7.30;;
2712;SDS011;1366;47.988;7.856;2023-06-04T01:55:56;8.97;;;8.07;;
2712;SDS011;1366;47.988;7.856;2023-06-04T01:58:22;8.90;;;8.10;;
2712;SDS011;1366;47.988;7.856;2023-06-04T02:00:52;9.93;;;8.93;;
2712;SDS011;1366;47.988;7.856;2023-06-04T02:03:19;8.40;;;7.70;;
2712;SDS011;1366;47.988;7.856;2023-06-04T02:05:46;9.10;;;8.30;;
2712;SDS011;1366;47.988;7.856;2023-06-04T02:08:16;8.37;;;7.57;;
2712;SDS011;1366;47.988;7.856;2023-06-04T02:10:44;8.80;;;8.00;;
2712;SDS011;1366;47.988;7.856;2023-06-04T02:13:11;9.00;;;8.10;;
2712;SDS011;1366;47.988;7.856;2023-06-04T02:15:37;11.40;;;8.17;;
2712;SDS011;1366;47.988;7.856;2023-06-04T02:18:13;8.10;;;7.23;;
2712;SDS011;1366;47.988;7.856;2023-06-04T02:20:43;8.60;;;7.90;;
2712;SDS011;1366;47.988;7.856;2023-06-04T02:23:10;9.80;;;8.90;;
2712;SDS011;1366;47.988;7.856;2023-06-04T02:25:36;8.07;;;7.37;;
2712;SDS011;1366;47.988;7.856;2023-06-04T02:28:02;9.60;;;8.80;;
2712;SDS011;1366;47.988;7.856;2023-06-04T02:30:28;9.23;;;8.13;;
2712;SDS011;1366;47.988;7.856;2023-06-04T02:32:54;9.10;;;8.20;;
2712;SDS011;1366;47.988;7.856;2023-06-04T02:35:21;9.00;;;8.03;;
2712;SDS011;1366;47.988;7.856;2023-06-04T02:37:49;8.60;;;7.67;;
2712;SDS011;1366;47.988;7.856;2023-06-04T02:40:16;8.47;;;7.77;;
2712;SDS011;1366;47.988;7.856;2023-06-04T02:42:42;9.73;;;8.77;;
2712;SDS011;1366;47.988;7.856;2023-06-04T02:45:09;8.87;;;8.07;;
2712;SDS011;1366;47.988;7.856;2023-06-04T02:47:35;8.40;;;7.70;;
2712;SDS011;1366;47.988;7.856;2023-06-04T02:50:01;8.40;;;7.70;;
2712;SDS011;1366;47.988;7.856;2023-06-04T02:52:28;8.10;;;7.40;;
2712;SDS011;1366;47.988;7.856;2023-06-04T02:54:55;8.90;;;8.10;;
2712;SDS011;1366;47.988;7.856;2023-06-04T02:57:22;8.20;;;7.40;;
2712;SDS011;1366;47.988;7.856;2023-06-04T02:59:48;8.20;;;7.50;;
2712;SDS011;1366;47.988;7.856;2023-06-04T03:02:14;9.20;;;8.30;;
2712;SDS011;1366;47.988;7.856;2023-06-04T03:04:40;8.97;;;8.07;;
2712;SDS011;1366;47.988;7.856;2023-06-04T03:07:07;10.90;;;8.70;;
2712;SDS011;1366;47.988;7.856;2023-06-04T03:09:36;8.60;;;7.70;;
2712;SDS011;1366;47.988;7.856;2023-06-04T03:12:02;9.07;;;8.38;;
2712;SDS011;1366;47.988;7.856;2023-06-04T03:14:29;9.30;;;8.47;;
2712;SDS011;1366;47.988;7.856;2023-06-04T03:16:59;9.70;;;8.80;;
2712;SDS011;1366;47.988;7.856;2023-06-04T03:19:26;8.60;;;7.90;;
2712;SDS011;1366;47.988;7.856;2023-06-04T03:21:53;8.57;;;7.87;;
2712;SDS011;1366;47.988;7.856;2023-06-04T03:24:19;8.90;;;8.13;;
2712;SDS011;1366;47.988;7.856;2023-06-04T03:26:45;8.87;;;8.10;;
2712;SDS011;1366;47.988;7.856;2023-06-04T03:29:11;8.63;;;7.82;;
2712;SDS011;1366;47.988;7.856;2023-06-04T03:31:38;8.90;;;8.10;;
2712;SDS011;1366;47.988;7.856;2023-06-04T03:34:04;7.87;;;7.27;;
2712;SDS011;1366;47.988;7.856;2023-06-04T03:36:30;9.00;;;8.17;;
2712;SDS011;1366;47.988;7.856;2023-06-04T03:38:56;8.60;;;7.80;;
2712;SDS011;1366;47.988;7.856;2023-06-04T03:41:22;8.27;;;7.67;;
2712;SDS011;1366;47.988;7.856;2023-06-04T03:43:48;8.40;;;7.70;;
2712;SDS011;1366;47.988;7.856;2023-06-04T03:46:14;8.17;;;7.47;;
2712;SDS011;1366;47.988;7.856;2023-06-04T03:48:41;8.70;;;7.90;;
2712;SDS011;1366;47.988;7.856;2023-06-04T03:51:07;9.20;;;7.30;;
2712;SDS011;1366;47.988;7.856;2023-06-04T03:53:33;9.47;;;8.23;;
2712;SDS011;1366;47.988;7.856;2023-06-04T03:55:59;9.20;;;8.40;;
2712;SDS011;1366;47.988;7.856;2023-06-04T03:58:25;8.30;;;7.60;;
2712;SDS011;1366;47.988;7.856;2023-06-04T04:00:53;9.67;;;8.77;;
2712;SDS011;1366;47.988;7.856;2023-06-04T04:03:19;8.70;;;8.00;;
2712;SDS011;1366;47.988;7.856;2023-06-04T04:05:46;7.87;;;7.20;;
2712;SDS011;1366;47.988;7.856;2023-06-04T04:08:12;8.63;;;7.93;;
2712;SDS011;1366;47.988;7.856;2023-06-04T04:10:41;8.23;;;7.53;;
2712;SDS011;1366;47.988;7.856;2023-06-04T04:13:07;7.70;;;6.97;;
2712;SDS011;1366;47.988;7.856;2023-06-04T04:15:33;8.20;;;7.40;;
2712;SDS011;1366;47.988;7.856;2023-06-04T04:17:59;8.77;;;7.97;;
2712;SDS011;1366;47.988;7.856;2023-06-04T04:20:26;8.73;;;7.77;;
2712;SDS011;1366;47.988;7.856;2023-06-04T04:22:52;8.50;;;7.53;;
2712;SDS011;1366;47.988;7.856;2023-06-04T04:25:18;8.00;;;7.30;;
2712;SDS011;1366;47.988;7.856;2023-06-04T04:27:44;7.90;;;7.20;;
2712;SDS011;1366;47.988;7.856;2023-06-04T04:30:10;7.93;;;7.13;;
2712;SDS011;1366;47.988;7.856;2023-06-04T04:32:37;8.07;;;7.17;;
2712;SDS011;1366;47.988;7.856;2023-06-04T04:35:05;8.10;;;7.50;;
2712;SDS011;1366;47.988;7.856;2023-06-04T04:37:33;8.02;;;7.25;;
2712;SDS011;1366;47.988;7.856;2023-06-04T04:40:03;7.60;;;6.90;;
2712;SDS011;1366;47.988;7.856;2023-06-04T04:42:30;8.00;;;7.20;;
2712;SDS011;1366;47.988;7.856;2023-06-04T04:44:56;8.30;;;7.43;;
2712;SDS011;1366;47.988;7.856;2023-06-04T04:47:22;7.20;;;6.50;;
2712;SDS011;1366;47.988;7.856;2023-06-04T04:49:48;7.83;;;6.70;;
2712;SDS011;1366;47.988;7.856;2023-06-04T04:52:14;9.90;;;7.27;;
2712;SDS011;1366;47.988;7.856;2023-06-04T04:54:40;7.35;;;6.70;;
2712;SDS011;1366;47.988;7.856;2023-06-04T04:57:06;7.23;;;6.63;;
2712;SDS011;1366;47.988;7.856;2023-06-04T04:59:32;7.47;;;6.77;;
2712;SDS011;1366;47.988;7.856;2023-06-04T05:01:58;8.27;;;6.90;;
2712;SDS011;1366;47.988;7.856;2023-06-04T05:04:24;7.77;;;6.50;;
2712;SDS011;1366;47.988;7.856;2023-06-04T05:06:50;7.30;;;6.60;;
2712;SDS011;1366;47.988;7.856;2023-06-04T05:09:16;7.63;;;6.87;;
2712;SDS011;1366;47.988;7.856;2023-06-04T05:11:43;7.20;;;6.60;;
2712;SDS011;1366;47.988;7.856;2023-06-04T05:14:09;7.47;;;6.43;;
2712;SDS011;1366;47.988;7.856;2023-06-04T05:16:35;7.43;;;6.67;;
2712;SDS011;1366;47.988;7.856;2023-06-04T05:19:03;7.20;;;6.13;;
2712;SDS011;1366;47.988;7.856;2023-06-04T05:21:29;8.00;;;6.70;;
2712;SDS011;1366;47.988;7.856;2023-06-04T05:23:55;7.07;;;6.27;;
2712;SDS011;1366;47.988;7.856;2023-06-04T05:26:21;7.43;;;6.40;;
2712;SDS011;1366;47.988;7.856;2023-06-04T05:28:48;7.83;;;6.43;;
2712;SDS011;1366;47.988;7.856;2023-06-04T05:31:15;7.83;;;7.13;;
2712;SDS011;1366;47.988;7.856;2023-06-04T05:33:43;6.73;;;6.10;;
2712;SDS011;1366;47.988;7.856;2023-06-04T05:36:09;6.60;;;6.10;;
2712;SDS011;1366;47.988;7.856;2023-06-04T05:38:35;7.73;;;6.37;;
2712;SDS011;1366;47.988;7.856;2023-06-04T05:41:01;7.25;;;6.55;;
2712;SDS011;1366;47.988;7.856;2023-06-04T05:43:27;7.73;;;6.80;;
2712;SDS011;1366;47.988;7.856;2023-06-04T05:45:53;6.30;;;5.80;;
2712;SDS011;1366;47.988;7.856;2023-06-04T05:48:22;6.90;;;6.10;;
2712;SDS011;1366;47.988;7.856;2023-06-04T05:50:48;7.10;;;6.40;;
2712;SDS011;1366;47.988;7.856;2023-06-04T05:53:14;6.63;;;6.03;;
2712;SDS011;1366;47.988;7.856;2023-06-04T05:55:41;7.27;;;6.43;;
2712;SDS011;1366;47.988;7.856;2023-06-04T05:58:07;6.80;;;6.10;;
2712;SDS011;1366;47.988;7.856;2023-06-04T06:00:33;7.27;;;6.53;;
2712;SDS011;1366;47.988;7.856;2023-06-04T06:03:00;6.43;;;5.83;;
2712;SDS011;1366;47.988;7.856;2023-06-04T06:05:26;10.30;;;6.00;;
2712;SDS011;1366;47.988;7.856;2023-06-04T06:07:52;6.67;;;6.00;;
2712;SDS011;1366;47.988;7.856;2023-06-04T06:10:20;9.27;;;6.33;;
2712;SDS011;1366;47.988;7.856;2023-06-04T06:12:47;10.07;;;6.70;;
2712;SDS011;1366;47.988;7.856;2023-06-04T06:15:13;9.23;;;6.23;;
2712;SDS011;1366;47.988;7.856;2023-06-04T06:17:39;6.60;;;6.00;;
2712;SDS011;1366;47.988;7.856;2023-06-04T06:20:05;6.33;;;5.50;;
2712;SDS011;1366;47.988;7.856;2023-06-04T06:22:32;7.10;;;5.77;;
2712;SDS011;1366;47.988;7.856;2023-06-04T06:25:00;6.17;;;5.20;;
2712;SDS011;1366;47.988;7.856;2023-06-04T06:27:26;8.00;;;5.93;;
2712;SDS011;1366;47.988;7.856;2023-06-04T06:29:52;14.30;;;13.00;;
2712;SDS011;1366;47.988;7.856;2023-06-04T06:32:18;10.97;;;6.83;;
2712;SDS011;1366;47.988;7.856;2023-06-04T06:34:44;7.13;;;6.50;;
2712;SDS011;1366;47.988;7.856;2023-06-04T06:37:10;9.83;;;7.87;;
2712;SDS011;1366;47.988;7.856;2023-06-04T06:39:36;7.73;;;7.13;;
2712;SDS011;1366;47.988;7.856;2023-06-04T06:42:02;10.33;;;8.40;;
2712;SDS011;1366;47.988;7.856;2023-06-04T06:44:28;8.37;;;7.70;;
2712;SDS011;1366;47.988;7.856;2023-06-04T06:46:54;7.10;;;6.17;;
2712;SDS011;1366;47.988;7.856;2023-06-04T06:49:20;6.47;;;5.83;;
2712;SDS011;1366;47.988;7.856;2023-06-04T06:51:46;7.23;;;6.53;;
2712;SDS011;1366;47.988;7.856;2023-06-04T06:54:15;7.47;;;6.57;;
2712;SDS011;1366;47.988;7.856;2023-06-04T06:56:42;6.60;;;6.00;;
2712;SDS011;1366;47.988;7.856;2023-06-04T06:59:08;7.50;;;5.93;;
2712;SDS011;1366;47.988;7.856;2023-06-04T07:01:34;6.03;;;5.53;;
2712;SDS011;1366;47.988;7.856;2023-06-04T07:04:00;7.10;;;6.40;;
2712;SDS011;1366;47.988;7.856;2023-06-04T07:06:26;6.63;;;6.00;;
2712;SDS011;1366;47.988;7.856;2023-06-04T07:08:52;6.60;;;6.00;;
2712;SDS011;1366;47.988;7.856;2023-06-04T07:11:19;7.63;;;6.90;;
2712;SDS011;1366;47.988;7.856;2023-06-04T07:13:47;6.60;;;6.00;;
2712;SDS011;1366;47.988;7.856;2023-06-04T07:16:13;6.43;;;5.83;;
2712;SDS011;1366;47.988;7.856;2023-06-04T07:18:39;6.33;;;5.73;;
2712;SDS011;1366;47.988;7.856;2023-06-04T07:21:05;7.00;;;6.30;;
2712;SDS011;1366;47.988;7.856;2023-06-04T07:23:31;6.27;;;5.77;;
2712;SDS011;1366;47.988;7.856;2023-06-04T07:25:57;6.87;;;6.37;;
2712;SDS011;1366;47.988;7.856;2023-06-04T07:28:23;6.97;;;6.30;;
2712;SDS011;1366;47.988;7.856;2023-06-04T07:30:49;9.77;;;7.60;;
2712;SDS011;1366;47.988;7.856;2023-06-04T07:33:15;10.27;;;7.57;;
2712;SDS011;1366;47.988;7.856;2023-06-04T07:35:41;7.70;;;7.00;;
2712;SDS011;1366;47.988;7.856;2023-06-04T07:38:07;9.17;;;6.70;;
2712;SDS011;1366;47.988;7.856;2023-06-04T07:40:33;7.57;;;6.80;;
2712;SDS011;1366;47.988;7.856;2023-06-04T07:42:59;8.20;;;7.50;;
2712;SDS011;1366;47.988;7.856;2023-06-04T07:45:25;8.10;;;7.50;;
2712;SDS011;1366;47.988;7.856;2023-06-04T07:47:53;7.83;;;6.10;;
2712;SDS011;1366;47.988;7.856;2023-06-04T07:50:19;7.37;;;6.70;;
2712;SDS011;1366;47.988;7.856;2023-06-04T07:52:45;9.13;;;5.90;;
2712;SDS011;1366;47.988;7.856;2023-06-04T07:55:11;7.57;;;6.53;;
2712;SDS011;1366;47.988;7.856;2023-06-04T07:57:37;12.23;;;6.47;;
2712;SDS011;1366;47.988;7.856;2023-06-04T08:00:03;6.20;;;5.60;;
2712;SDS011;1366;47.988;7.856;2023-06-04T08:02:30;7.87;;;6.13;;
2712;SDS011;1366;47.988;7.856;2023-06-04T08:04:56;10.70;;;6.70;;
2712;SDS011;1366;47.988;7.856;2023-06-04T08:07:22;7.00;;;6.40;;
2712;SDS011;1366;47.988;7.856;2023-06-04T08:09:48;7.10;;;6.40;;
2712;SDS011;1366;47.988;7.856;2023-06-04T08:12:15;7.53;;;5.97;;
2712;SDS011;1366;47.988;7.856;2023-06-04T08:14:41;6.87;;;6.17;;
2712;SDS011;1366;47.988;7.856;2023-06-04T08:17:07;7.53;;;6.00;;
2712;SDS011;1366;47.988;7.856;2023-06-04T08:19:33;7.17;;;6.47;;
2712;SDS011;1366;47.988;7.856;2023-06-04T08:21:59;7.83;;;6.57;;
2712;SDS011;1366;47.988;7.856;2023-06-04T08:24:25;6.70;;;6.10;;
2712;SDS011;1366;47.988;7.856;2023-06-04T08:26:51;6.60;;;6.00;;
2712;SDS011;1366;47.988;7.856;2023-06-04T08:29:18;6.90;;;6.30;;
2712;SDS011;1366;47.988;7.856;2023-06-04T08:31:44;7.03;;;6.33;;
2712;SDS011;1366;47.988;7.856;2023-06-04T08:34:10;6.37;;;5.80;;
2712;SDS011;1366;47.988;7.856;2023-06-04T08:36:36;7.73;;;6.87;;
2712;SDS011;1366;47.988;7.856;2023-06-04T08:39:02;9.47;;;7.23;;
2712;SDS011;1366;47.988;7.856;2023-06-04T08:41:29;9.07;;;6.03;;
2712;SDS011;1366;47.988;7.856;2023-06-04T08:43:56;6.97;;;5.70;;
2712;SDS011;1366;47.988;7.856;2023-06-04T08:46:28;6.27;;;5.67;;
2712;SDS011;1366;47.988;7.856;2023-06-04T08:48:55;7.33;;;5.63;;
2712;SDS011;1366;47.988;7.856;2023-06-04T08:51:21;6.00;;;5.33;;
2712;SDS011;1366;47.988;7.856;2023-06-04T08:53:48;5.50;;;5.00;;
2712;SDS011;1366;47.988;7.856;2023-06-04T08:56:19;5.63;;;5.23;;
2712;SDS011;1366;47.988;7.856;2023-06-04T08:58:47;4.97;;;4.57;;
2712;SDS011;1366;47.988;7.856;2023-06-04T09:01:13;5.83;;;5.23;;
2712;SDS011;1366;47.988;7.856;2023-06-04T09:03:40;5.40;;;4.40;;
2712;SDS011;1366;47.988;7.856;2023-06-04T09:06:06;6.63;;;5.87;;
2712;SDS011;1366;47.988;7.856;2023-06-04T09:08:34;4.73;;;4.20;;
2712;SDS011;1366;47.988;7.856;2023-06-04T09:11:04;6.47;;;4.77;;
2712;SDS011;1366;47.988;7.856;2023-06-04T09:13:31;4.87;;;4.40;;
2712;SDS011;1366;47.988;7.856;2023-06-04T09:16:02;5.57;;;4.40;;
2712;SDS011;1366;47.988;7.856;2023-06-04T09:18:29;5.07;;;4.30;;
2712;SDS011;1366;47.988;7.856;2023-06-04T09:21:05;7.43;;;4.60;;
2712;SDS011;1366;47.988;7.856;2023-06-04T09:23:45;4.90;;;4.40;;
2712;SDS011;1366;47.988;7.856;2023-06-04T09:26:11;4.80;;;4.30;;
2712;SDS011;1366;47.988;7.856;2023-06-04T09:28:44;7.37;;;4.70;;
2712;SDS011;1366;47.988;7.856;2023-06-04T09:31:14;5.00;;;4.50;;
2712;SDS011;1366;47.988;7.856;2023-06-04T09:36:09;5.43;;;4.93;;
2712;SDS011;1366;47.988;7.856;2023-06-04T09:38:36;5.93;;;5.43;;
2712;SDS011;1366;47.988;7.856;2023-06-04T09:41:02;5.10;;;4.67;;
2712;SDS011;1366;47.988;7.856;2023-06-04T09:43:32;5.37;;;4.87;;
2712;SDS011;1366;47.988;7.856;2023-06-04T09:46:14;5.23;;;4.80;;
2712;SDS011;1366;47.988;7.856;2023-06-04T09:48:41;5.30;;;4.80;;
2712;SDS011;1366;47.988;7.856;2023-06-04T09:51:10;5.23;;;4.83;;
2712;SDS011;1366;47.988;7.856;2023-06-04T09:53:37;6.30;;;5.33;;
2712;SDS011;1366;47.988;7.856;2023-06-04T09:56:04;4.90;;;4.50;;
2712;SDS011;1366;47.988;7.856;2023-06-04T09:58:31;5.60;;;5.10;;
2712;SDS011;1366;47.988;7.856;2023-06-04T10:01:02;5.90;;;5.30;;
2712;SDS011;1366;47.988;7.856;2023-06-04T10:03:32;5.23;;;4.87;;
2712;SDS011;1366;47.988;7.856;2023-06-04T10:05:59;5.87;;;5.03;;
2712;SDS011;1366;47.988;7.856;2023-06-04T10:08:26;6.30;;;5.80;;
2712;SDS011;1366;47.988;7.856;2023-06-04T10:10:56;7.00;;;5.60;;
2712;SDS011;1366;47.988;7.856;2023-06-04T10:13:24;6.17;;;5.57;;
2712;SDS011;1366;47.988;7.856;2023-06-04T10:15:52;5.43;;;5.00;;
2712;SDS011;1366;47.988;7.856;2023-06-04T10:18:18;5.40;;;4.90;;
2712;SDS011;1366;47.988;7.856;2023-06-04T10:20:44;5.63;;;5.07;;
2712;SDS011;1366;47.988;7.856;2023-06-04T10:23:11;6.13;;;5.50;;
2712;SDS011;1366;47.988;7.856;2023-06-04T10:25:37;5.73;;;5.10;;
2712;SDS011;1366;47.988;7.856;2023-06-04T10:28:03;5.77;;;5.27;;
2712;SDS011;1366;47.988;7.856;2023-06-04T10:30:30;7.60;;;6.70;;
2712;SDS011;1366;47.988;7.856;2023-06-04T10:32:56;6.83;;;6.20;;
2712;SDS011;1366;47.988;7.856;2023-06-04T10:35:32;6.07;;;5.50;;
2712;SDS011;1366;47.988;7.856;2023-06-04T10:38:12;7.73;;;5.27;;
2712;SDS011;1366;47.988;7.856;2023-06-04T10:40:46;7.60;;;5.60;;
2712;SDS011;1366;47.988;7.856;2023-06-04T10:43:12;5.90;;;5.40;;
2712;SDS011;1366;47.988;7.856;2023-06-04T10:45:39;7.40;;;6.80;;
2712;SDS011;1366;47.988;7.856;2023-06-04T10:48:07;7.00;;;6.50;;
2712;SDS011;1366;47.988;7.856;2023-06-04T10:50:33;6.20;;;5.70;;
2712;SDS011;1366;47.988;7.856;2023-06-04T10:52:59;7.00;;;6.30;;
2712;SDS011;1366;47.988;7.856;2023-06-04T10:55:31;6.60;;;6.10;;
2712;SDS011;1366;47.988;7.856;2023-06-04T10:58:00;6.47;;;5.80;;
2712;SDS011;1366;47.988;7.856;2023-06-04T11:00:40;7.10;;;6.50;;
2712;SDS011;1366;47.988;7.856;2023-06-04T11:03:06;6.97;;;6.37;;
2712;SDS011;1366;47.988;7.856;2023-06-04T11:05:33;7.60;;;6.90;;
2712;SDS011;1366;47.988;7.856;2023-06-04T11:08:00;7.80;;;7.10;;
2712;SDS011;1366;47.988;7.856;2023-06-04T11:10:30;7.23;;;6.53;;
2712;SDS011;1366;47.988;7.856;2023-06-04T11:12:58;8.03;;;6.87;;
2712;SDS011;1366;47.988;7.856;2023-06-04T11:15:24;7.80;;;7.07;;
2712;SDS011;1366;47.988;7.856;2023-06-04T11:17:55;6.97;;;6.37;;
2712;SDS011;1366;47.988;7.856;2023-06-04T11:20:24;8.20;;;7.50;;
2712;SDS011;1366;47.988;7.856;2023-06-04T11:22:57;8.50;;;7.30;;
2712;SDS011;1366;47.988;7.856;2023-06-04T11:25:23;8.20;;;7.40;;
2712;SDS011;1366;47.988;7.856;2023-06-04T11:27:51;10.50;;;7.90;;
2712;SDS011;1366;47.988;7.856;2023-06-04T11:30:17;8.17;;;7.50;;
2712;SDS011;1366;47.988;7.856;2023-06-04T11:32:43;8.20;;;7.50;;
2712;SDS011;1366;47.988;7.856;2023-06-04T11:35:10;7.47;;;6.70;;
2712;SDS011;1366;47.988;7.856;2023-06-04T11:37:36;7.70;;;7.00;;
2712;SDS011;1366;47.988;7.856;2023-06-04T11:40:03;6.97;;;6.37;;
2712;SDS011;1366;47.988;7.856;2023-06-04T11:42:32;6.50;;;5.90;;
2712;SDS011;1366;47.988;7.856;2023-06-04T11:44:58;8.30;;;6.80;;
2712;SDS011;1366;47.988;7.856;2023-06-04T11:47:24;7.37;;;6.67;;
2712;SDS011;1366;47.988;7.856;2023-06-04T11:49:56;9.90;;;7.30;;
2712;SDS011;1366;47.988;7.856;2023-06-04T11:52:23;8.80;;;8.00;;
2712;SDS011;1366;47.988;7.856;2023-06-04T11:54:49;8.13;;;7.20;;
2712;SDS011;1366;47.988;7.856;2023-06-04T11:57:15;6.90;;;6.20;;
2712;SDS011;1366;47.988;7.856;2023-06-04T11:59:41;7.77;;;6.87;;
2712;SDS011;1366;47.988;7.856;2023-06-04T12:02:07;8.30;;;7.40;;
2712;SDS011;1366;47.988;7.856;2023-06-04T12:04:33;10.53;;;7.33;;
2712;SDS011;1366;47.988;7.856;2023-06-04T12:07:00;9.80;;;7.97;;
2712;SDS011;1366;47.988;7.856;2023-06-04T12:09:33;7.67;;;7.07;;
2712;SDS011;1366;47.988;7.856;2023-06-04T12:12:06;7.33;;;6.73;;
2712;SDS011;1366;47.988;7.856;2023-06-04T12:14:32;7.87;;;7.17;;
2712;SDS011;1366;47.988;7.856;2023-06-04T12:16:59;7.80;;;7.10;;
2712;SDS011;1366;47.988;7.856;2023-06-04T12:19:26;7.30;;;6.60;;
2712;SDS011;1366;47.988;7.856;2023-06-04T12:21:59;7.93;;;6.70;;
2712;SDS011;1366;47.988;7.856;2023-06-04T12:24:26;7.57;;;6.87;;
2712;SDS011;1366;47.988;7.856;2023-06-04T12:27:00;7.90;;;7.10;;
2712;SDS011;1366;47.988;7.856;2023-06-04T12:29:27;7.57;;;6.93;;
2712;SDS011;1366;47.988;7.856;2023-06-04T12:32:01;7.83;;;7.13;;
2712;SDS011;1366;47.988;7.856;2023-06-04T12:34:27;8.00;;;7.20;;
2712;SDS011;1366;47.988;7.856;2023-06-04T12:36:53;7.60;;;6.90;;
2712;SDS011;1366;47.988;7.856;2023-06-04T12:39:19;8.23;;;7.60;;
2712;SDS011;1366;47.988;7.856;2023-06-04T12:41:45;7.90;;;7.27;;
2712;SDS011;1366;47.988;7.856;2023-06-04T12:44:12;8.03;;;7.37;;
2712;SDS011;1366;47.988;7.856;2023-06-04T12:46:38;8.80;;;6.90;;
2712;SDS011;1366;47.988;7.856;2023-06-04T12:49:04;7.30;;;6.70;;
2712;SDS011;1366;47.988;7.856;2023-06-04T12:51:30;7.97;;;7.37;;
2712;SDS011;1366;47.988;7.856;2023-06-04T12:53:57;7.40;;;6.70;;
2712;SDS011;1366;47.988;7.856;2023-06-04T12:56:23;7.70;;;7.00;;
2712;SDS011;1366;47.988;7.856;2023-06-04T12:58:50;8.20;;;7.50;;
2712;SDS011;1366;47.988;7.856;2023-06-04T13:01:16;6.97;;;6.47;;
2712;SDS011;1366;47.988;7.856;2023-06-04T13:03:42;7.67;;;7.07;;
2712;SDS011;1366;47.988;7.856;2023-06-04T13:06:08;7.10;;;6.50;;
2712;SDS011;1366;47.988;7.856;2023-06-04T13:08:35;6.90;;;6.40;;
2712;SDS011;1366;47.988;7.856;2023-06-04T13:11:01;7.17;;;6.57;;
2712;SDS011;1366;47.988;7.856;2023-06-04T13:13:28;7.73;;;7.10;;
2712;SDS011;1366;47.988;7.856;2023-06-04T13:15:54;7.90;;;7.20;;
2712;SDS011;1366;47.988;7.856;2023-06-04T13:18:21;7.50;;;5.97;;
2712;SDS011;1366;47.988;7.856;2023-06-04T13:20:47;7.27;;;6.63;;
2712;SDS011;1366;47.988;7.856;2023-06-04T13:23:14;7.70;;;7.03;;
2712;SDS011;1366;47.988;7.856;2023-06-04T13:25:40;7.20;;;6.50;;
2712;SDS011;1366;47.988;7.856;2023-06-04T13:28:06;6.63;;;6.13;;
2712;SDS011;1366;47.988;7.856;2023-06-04T13:30:34;7.67;;;6.87;;
2712;SDS011;1366;47.988;7.856;2023-06-04T13:33:01;7.10;;;6.50;;
2712;SDS011;1366;47.988;7.856;2023-06-04T13:35:27;7.03;;;6.53;;
2712;SDS011;1366;47.988;7.856;2023-06-04T13:37:54;8.10;;;7.30;;
2712;SDS011;1366;47.988;7.856;2023-06-04T13:40:20;7.00;;;6.40;;
2712;SDS011;1366;47.988;7.856;2023-06-04T13:42:46;7.27;;;6.60;;
2712;SDS011;1366;47.988;7.856;2023-06-04T13:45:12;7.17;;;6.67;;
2712;SDS011;1366;47.988;7.856;2023-06-04T13:47:38;7.00;;;6.50;;
2712;SDS011;1366;47.988;7.856;2023-06-04T13:50:05;7.00;;;6.30;;
2712;SDS011;1366;47.988;7.856;2023-06-04T13:52:31;8.57;;;6.63;;
2712;SDS011;1366;47.988;7.856;2023-06-04T13:54:57;7.30;;;6.70;;
2712;SDS011;1366;47.988;7.856;2023-06-04T13:57:24;7.50;;;6.77;;
2712;SDS011;1366;47.988;7.856;2023-06-04T13:59:50;7.40;;;6.70;;
2712;SDS011;1366;47.988;7.856;2023-06-04T14:02:16;6.00;;;5.50;;
2712;SDS011;1366;47.988;7.856;2023-06-04T14:04:42;7.00;;;6.40;;
2712;SDS011;1366;47.988;7.856;2023-06-04T14:07:08;7.00;;;6.50;;
2712;SDS011;1366;47.988;7.856;2023-06-04T14:09:35;7.10;;;6.50;;
2712;SDS011;1366;47.988;7.856;2023-06-04T14:12:04;7.63;;;7.03;;
2712;SDS011;1366;47.988;7.856;2023-06-04T14:14:30;7.37;;;6.63;;
2712;SDS011;1366;47.988;7.856;2023-06-04T14:17:01;7.47;;;6.87;;
2712;SDS011;1366;47.988;7.856;2023-06-04T14:19:27;6.93;;;6.43;;
2712;SDS011;1366;47.988;7.856;2023-06-04T14:21:53;6.73;;;6.10;;
2712;SDS011;1366;47.988;7.856;2023-06-04T14:24:19;8.60;;;6.87;;
2712;SDS011;1366;47.988;7.856;2023-06-04T14:26:46;7.43;;;6.80;;
2712;SDS011;1366;47.988;7.856;2023-06-04T14:29:12;7.00;;;6.40;;
2712;SDS011;1366;47.988;7.856;2023-06-04T14:31:38;7.47;;;6.87;;
2712;SDS011;1366;47.988;7.856;2023-06-04T14:34:04;6.87;;;6.37;;
2712;SDS011;1366;47.988;7.856;2023-06-04T14:36:32;7.10;;;6.47;;
2712;SDS011;1366;47.988;7.856;2023-06-04T14:38:58;7.80;;;7.20;;
2712;SDS011;1366;47.988;7.856;2023-06-04T14:41:24;6.70;;;6.20;;
2712;SDS011;1366;47.988;7.856;2023-06-04T14:43:51;6.27;;;5.77;;
2712;SDS011;1366;47.988;7.856;2023-06-04T14:46:17;6.70;;;6.17;;
2712;SDS011;1366;47.988;7.856;2023-06-04T14:48:44;6.80;;;6.20;;
2712;SDS011;1366;47.988;7.856;2023-06-04T14:51:10;6.27;;;5.77;;
2712;SDS011;1366;47.988;7.856;2023-06-04T14:53:36;6.40;;;5.90;;
2712;SDS011;1366;47.988;7.856;2023-06-04T14:56:04;5.67;;;5.27;;
2712;SDS011;1366;47.988;7.856;2023-06-04T14:58:30;5.90;;;5.50;;
2712;SDS011;1366;47.988;7.856;2023-06-04T15:00:56;5.90;;;5.40;;
2712;SDS011;1366;47.988;7.856;2023-06-04T15:03:23;5.63;;;5.23;;
2712;SDS011;1366;47.988;7.856;2023-06-04T15:05:49;5.73;;;5.33;;
2712;SDS011;1366;47.988;7.856;2023-06-04T15:08:15;5.50;;;5.00;;
2712;SDS011;1366;47.988;7.856;2023-06-04T15:10:41;5.30;;;4.90;;
2712;SDS011;1366;47.988;7.856;2023-06-04T15:13:07;5.87;;;5.47;;
2712;SDS011;1366;47.988;7.856;2023-06-04T15:15:34;6.33;;;5.77;;